Time;durP1;ratioP1;P1;durP2;ratioP2;P2;SDS_P1;SDS_P2;PMS_P1;PMS_P2;Temp;Humidity;BMP_temperature;BMP_pressure;BME280_temperature;BME280_humidity;BME280_pressure;Samples;Min_cycle;Max_cycle;Signal;HPM_P1;HPM_P2
2024/03/27 00:01:46;;;;;;;13.52;8.50;;;;;;;;;;5048860;28;20025;-54
2024/03/27 00:04:12;;;;;;;13.52;8.43;;;;;;;;;;5048559;28;20021;-47
2024/03/27 00:06:38;;;;;;;13.23;7.95;;;;;;;;;;5048784;28;20088;-51
2024/03/27 00:09:04;;;;;;;13.57;8.50;;;;;;;;;;5048505;28;20159;-47
2024/03/27 00:11:30;;;;;;;13.60;8.80;;;;;;;;;;5048636;28;20033;-46
2024/03/27 00:13:56;;;;;;;13.68;8.90;;;;;;;;;;5048145;28;20037;-46
2024/03/27 00:16:22;;;;;;;13.65;8.80;;;;;;;;;;5048402;28;20029;-47
2024/03/27 00:18:48;;;;;;;13.57;8.40;;;;;;;;;;5048982;28;20554;-51
2024/03/27 00:21:14;;;;;;;13.43;8.10;;;;;;;;;;5048209;28;20033;-53
2024/03/27 00:23:40;;;;;;;13.48;8.27;;;;;;;;;;5047822;28;20560;-51
2024/03/27 00:26:06;;;;;;;13.50;8.40;;;;;;;;;;5048158;28;20029;-51
2024/03/27 00:28:32;;;;;;;13.55;8.60;;;;;;;;;;5038021;28;20033;-50
2024/03/27 00:30:58;;;;;;;13.65;8.70;;;;;;;;;;5030538;28;20091;-52
2024/03/27 00:33:24;;;;;;;13.50;8.30;;;;;;;;;;5045879;28;20083;-53
2024/03/27 00:35:57;;;;;;;13.50;8.23;;;;;;;;;;5032010;28;20128;-53
2024/03/27 00:38:23;;;;;;;13.50;8.32;;;;;;;;;;5031675;28;20654;-49
2024/03/27 00:40:50;;;;;;;13.50;8.40;;;;;;;;;;5031141;28;20097;-54
2024/03/27 00:43:16;;;;;;;13.48;8.27;;;;;;;;;;5030399;28;20072;-51
2024/03/27 00:45:42;;;;;;;13.50;8.25;;;;;;;;;;5030460;28;20120;-54
2024/03/27 00:48:08;;;;;;;13.55;8.57;;;;;;;;;;5030793;28;20022;-48
2024/03/27 00:50:34;;;;;;;13.57;8.40;;;;;;;;;;5030753;28;20017;-50
2024/03/27 00:53:01;;;;;;;13.48;8.27;;;;;;;;;;5030827;28;20104;-54
2024/03/27 00:55:27;;;;;;;13.48;8.30;;;;;;;;;;5030750;28;20033;-52
2024/03/27 00:57:53;;;;;;;13.32;8.10;;;;;;;;;;5030822;28;20021;-51
2024/03/27 01:00:19;;;;;;;13.18;7.80;;;;;;;;;;5030887;28;20551;-54
2024/03/27 01:02:45;;;;;;;13.45;8.18;;;;;;;;;;5030679;28;20018;-50
2024/03/27 01:05:12;;;;;;;13.43;8.10;;;;;;;;;;5031393;28;20029;-53
2024/03/27 01:07:38;;;;;;;13.30;7.95;;;;;;;;;;5031485;28;20395;-54
2024/03/27 01:10:05;;;;;;;13.35;7.90;;;;;;;;;;5031457;28;20083;-56
2024/03/27 01:12:31;;;;;;;13.20;7.75;;;;;;;;;;5045866;28;20044;-53
2024/03/27 01:14:57;;;;;;;13.40;8.00;;;;;;;;;;5030424;28;20163;-55
2024/03/27 01:17:23;;;;;;;13.43;8.02;;;;;;;;;;5030330;28;20033;-55
2024/03/27 01:19:49;;;;;;;13.48;8.30;;;;;;;;;;5030539;28;20025;-52
2024/03/27 01:22:15;;;;;;;13.50;8.20;;;;;;;;;;5030181;28;20020;-53
2024/03/27 01:24:41;;;;;;;13.35;7.95;;;;;;;;;;5030140;28;20094;-55
2024/03/27 01:27:07;;;;;;;13.45;8.20;;;;;;;;;;5030359;28;20032;-50
2024/03/27 01:29:33;;;;;;;13.38;8.10;;;;;;;;;;5030243;28;20033;-53
2024/03/27 01:31:59;;;;;;;13.82;9.02;;;;;;;;;;5030340;28;20037;-55
2024/03/27 01:34:25;;;;;;;13.25;8.00;;;;;;;;;;5030187;28;20071;-48
2024/03/27 01:36:51;;;;;;;13.50;8.30;;;;;;;;;;5030285;28;20087;-54
2024/03/27 01:39:17;;;;;;;13.45;8.15;;;;;;;;;;5030967;28;20492;-50
2024/03/27 01:41:43;;;;;;;13.57;8.60;;;;;;;;;;5045767;28;20049;-53
2024/03/27 01:44:16;;;;;;;13.52;8.60;;;;;;;;;;5030747;28;20025;-57
2024/03/27 01:46:42;;;;;;;13.50;8.50;;;;;;;;;;5046188;28;20111;-54
2024/03/27 01:49:08;;;;;;;13.52;8.35;;;;;;;;;;5046347;28;20036;-51
2024/03/27 01:51:34;;;;;;;13.48;8.30;;;;;;;;;;5030669;28;20022;-54
2024/03/27 01:54:00;;;;;;;13.50;8.38;;;;;;;;;;5029768;28;20042;-53
2024/03/27 01:56:26;;;;;;;13.60;8.65;;;;;;;;;;5029071;28;20034;-56
2024/03/27 01:58:52;;;;;;;13.57;8.57;;;;;;;;;;5029954;28;20475;-54
2024/03/27 02:01:19;;;;;;;13.35;8.13;;;;;;;;;;5030082;28;20108;-53
2024/03/27 02:03:45;;;;;;;13.50;8.23;;;;;;;;;;5029957;28;20048;-50
2024/03/27 02:06:11;;;;;;;13.57;8.40;;;;;;;;;;5030186;28;20643;-53
2024/03/27 02:08:37;;;;;;;13.55;8.40;;;;;;;;;;5030352;28;20025;-53
2024/03/27 02:11:03;;;;;;;13.35;7.95;;;;;;;;;;5030044;28;20029;-56
2024/03/27 02:13:29;;;;;;;13.45;8.30;;;;;;;;;;5029787;28;20041;-50
2024/03/27 02:16:01;;;;;;;13.50;8.40;;;;;;;;;;5029073;28;20033;-53
2024/03/27 02:18:27;;;;;;;13.32;8.00;;;;;;;;;;5029856;28;20032;-55
2024/03/27 02:20:53;;;;;;;13.25;7.95;;;;;;;;;;5029970;28;20021;-50
2024/03/27 02:23:20;;;;;;;13.43;8.13;;;;;;;;;;5028568;28;20030;-53
2024/03/27 02:26:05;;;;;;;13.52;8.30;;;;;;;;;;5029319;28;20032;-54
2024/03/27 02:28:31;;;;;;;13.48;8.27;;;;;;;;;;5029830;28;20030;-50
2024/03/27 02:30:57;;;;;;;13.50;8.30;;;;;;;;;;5045083;28;20025;-49
2024/03/27 02:33:23;;;;;;;13.52;8.43;;;;;;;;;;5029547;28;20451;-53
2024/03/27 02:35:50;;;;;;;13.55;8.40;;;;;;;;;;5029565;28;20068;-54
2024/03/27 02:38:16;;;;;;;13.52;8.40;;;;;;;;;;5045020;28;20551;-54
2024/03/27 02:40:41;;;;;;;13.50;8.45;;;;;;;;;;5029751;28;20116;-49
2024/03/27 02:43:07;;;;;;;13.50;8.40;;;;;;;;;;5029678;28;20109;-48
2024/03/27 02:45:33;;;;;;;13.57;8.60;;;;;;;;;;5030597;28;20025;-49
2024/03/27 02:47:59;;;;;;;13.43;8.38;;;;;;;;;;5029665;28;20049;-53
2024/03/27 02:50:25;;;;;;;13.52;8.57;;;;;;;;;;5029582;28;20036;-49
2024/03/27 02:52:52;;;;;;;13.57;8.57;;;;;;;;;;5029569;28;20022;-54
2024/03/27 02:55:18;;;;;;;13.52;8.50;;;;;;;;;;5029516;28;20044;-53
2024/03/27 02:57:44;;;;;;;13.57;8.60;;;;;;;;;;5029285;28;20476;-50
2024/03/27 03:00:10;;;;;;;13.48;8.40;;;;;;;;;;5029301;28;20113;-52
2024/03/27 03:02:37;;;;;;;13.52;8.40;;;;;;;;;;5029278;28;20028;-51
2024/03/27 03:05:03;;;;;;;13.57;8.50;;;;;;;;;;5029752;28;20160;-55
2024/03/27 03:07:29;;;;;;;13.55;8.40;;;;;;;;;;5033901;28;20025;-51
2024/03/27 03:09:55;;;;;;;13.45;8.32;;;;;;;;;;5036791;28;20021;-51
2024/03/27 03:12:21;;;;;;;13.50;8.40;;;;;;;;;;5036906;28;20039;-50
2024/03/27 03:14:47;;;;;;;13.38;8.30;;;;;;;;;;5035954;28;20041;-47
2024/03/27 03:17:13;;;;;;;13.38;8.32;;;;;;;;;;5032885;28;20657;-49
2024/03/27 03:19:39;;;;;;;13.50;8.40;;;;;;;;;;5032878;28;20074;-51
2024/03/27 03:22:05;;;;;;;13.52;8.40;;;;;;;;;;5032981;28;20071;-50
2024/03/27 03:24:31;;;;;;;13.55;8.32;;;;;;;;;;5032698;28;20022;-48
2024/03/27 03:26:57;;;;;;;13.57;8.43;;;;;;;;;;5033480;28;20033;-50
2024/03/27 03:29:23;;;;;;;13.43;8.10;;;;;;;;;;5033435;28;20084;-55
2024/03/27 03:31:49;;;;;;;13.30;8.13;;;;;;;;;;5033130;28;20025;-53
2024/03/27 03:34:15;;;;;;;13.43;8.20;;;;;;;;;;5032861;28;20029;-54
2024/03/27 03:36:41;;;;;;;13.40;8.20;;;;;;;;;;5032807;28;20033;-53
2024/03/27 03:39:07;;;;;;;13.50;8.45;;;;;;;;;;5032455;28;20034;-48
2024/03/27 03:41:33;;;;;;;13.57;8.50;;;;;;;;;;5047977;28;20085;-50
2024/03/27 03:43:59;;;;;;;13.52;8.50;;;;;;;;;;5032077;28;20096;-50
2024/03/27 03:46:25;;;;;;;13.57;8.55;;;;;;;;;;5032363;28;20492;-51
2024/03/27 03:48:51;;;;;;;13.65;8.82;;;;;;;;;;5032029;28;20029;-53
2024/03/27 03:51:17;;;;;;;13.50;8.32;;;;;;;;;;5032389;28;20503;-52
2024/03/27 03:53:43;;;;;;;13.50;8.50;;;;;;;;;;5032038;28;20025;-54
2024/03/27 03:56:09;;;;;;;13.60;8.68;;;;;;;;;;5032075;28;20021;-54
2024/03/27 03:58:35;;;;;;;13.52;8.40;;;;;;;;;;5031840;28;20056;-47
2024/03/27 04:01:01;;;;;;;13.40;8.10;;;;;;;;;;5031937;28;20113;-56
2024/03/27 04:03:27;;;;;;;13.45;8.25;;;;;;;;;;5031583;28;20379;-47
2024/03/27 04:05:53;;;;;;;13.50;8.40;;;;;;;;;;5031911;28;20112;-54
2024/03/27 04:08:21;;;;;;;13.57;8.43;;;;;;;;;;5031845;28;20108;-54
2024/03/27 04:10:47;;;;;;;13.43;8.18;;;;;;;;;;5031723;28;20034;-52
2024/03/27 04:13:13;;;;;;;13.50;8.35;;;;;;;;;;5031882;28;20052;-54
2024/03/27 04:15:42;;;;;;;13.45;8.25;;;;;;;;;;5031468;28;20495;-54
2024/03/27 04:18:09;;;;;;;13.55;8.40;;;;;;;;;;5031215;28;20026;-52
2024/03/27 04:20:35;;;;;;;13.48;8.35;;;;;;;;;;5031291;28;20071;-54
2024/03/27 04:23:02;;;;;;;13.38;8.20;;;;;;;;;;5031407;28;20033;-54
2024/03/27 04:25:28;;;;;;;13.38;8.20;;;;;;;;;;5031485;28;20018;-51
2024/03/27 04:27:55;;;;;;;13.48;8.15;;;;;;;;;;5031553;28;20022;-53
2024/03/27 04:30:21;;;;;;;13.25;7.85;;;;;;;;;;5031428;28;20032;-53
2024/03/27 04:32:47;;;;;;;13.35;7.90;;;;;;;;;;5031299;28;20475;-51
2024/03/27 04:35:13;;;;;;;13.43;8.13;;;;;;;;;;5031427;28;20072;-54
2024/03/27 04:37:40;;;;;;;13.48;8.27;;;;;;;;;;5031523;28;20025;-50
2024/03/27 04:40:12;;;;;;;13.43;8.10;;;;;;;;;;5031280;28;20396;-54
2024/03/27 04:42:39;;;;;;;13.32;7.88;;;;;;;;;;5046306;28;20025;-51
2024/03/27 04:45:05;;;;;;;13.43;8.18;;;;;;;;;;5031125;28;20459;-53
2024/03/27 04:47:32;;;;;;;13.43;8.13;;;;;;;;;;5031089;28;20022;-55
2024/03/27 04:49:58;;;;;;;13.45;8.20;;;;;;;;;;5030950;28;20060;-51
2024/03/27 04:52:24;;;;;;;13.32;8.07;;;;;;;;;;5046029;28;20028;-54
2024/03/27 04:54:49;;;;;;;13.43;8.15;;;;;;;;;;5031516;28;20026;-50
2024/03/27 04:57:16;;;;;;;13.48;8.43;;;;;;;;;;5031340;28;20479;-54
2024/03/27 04:59:42;;;;;;;13.35;8.13;;;;;;;;;;5031185;28;20025;-53
2024/03/27 05:02:08;;;;;;;13.50;8.38;;;;;;;;;;5030818;28;20372;-51
2024/03/27 05:04:34;;;;;;;13.57;8.40;;;;;;;;;;5030589;28;20028;-51
2024/03/27 05:07:00;;;;;;;13.57;8.55;;;;;;;;;;5046052;28;20434;-51
2024/03/27 05:09:26;;;;;;;13.50;8.40;;;;;;;;;;5045953;28;20071;-51
2024/03/27 05:11:52;;;;;;;13.55;8.60;;;;;;;;;;5030574;28;20510;-51
2024/03/27 05:14:18;;;;;;;13.43;8.20;;;;;;;;;;5030239;28;20033;-48
2024/03/27 05:16:44;;;;;;;13.43;8.15;;;;;;;;;;5030368;28;20070;-53
2024/03/27 05:19:10;;;;;;;13.38;8.00;;;;;;;;;;5030076;28;20395;-54
2024/03/27 05:21:36;;;;;;;13.52;8.30;;;;;;;;;;5030269;28;20069;-54
2024/03/27 05:24:02;;;;;;;13.40;8.00;;;;;;;;;;5030044;28;20491;-50
2024/03/27 05:26:28;;;;;;;13.40;8.13;;;;;;;;;;5030129;28;20107;-55
2024/03/27 05:28:55;;;;;;;13.30;7.80;;;;;;;;;;5030120;28;20025;-49
2024/03/27 05:31:22;;;;;;;13.20;7.70;;;;;;;;;;5030089;28;20034;-52
2024/03/27 05:33:47;;;;;;;13.10;7.60;;;;;;;;;;5029980;28;20403;-54
2024/03/27 05:36:13;;;;;;;12.82;7.50;;;;;;;;;;5030114;28;20040;-56
2024/03/27 05:38:40;;;;;;;16.35;12.45;;;;;;;;;;5030067;28;20095;-54
2024/03/27 05:41:06;;;;;;;13.00;7.55;;;;;;;;;;5030233;28;20025;-54
2024/03/27 05:43:32;;;;;;;13.27;7.90;;;;;;;;;;5029926;28;20502;-53
2024/03/27 05:45:58;;;;;;;13.32;8.02;;;;;;;;;;5029944;28;20022;-54
2024/03/27 05:48:24;;;;;;;13.40;8.05;;;;;;;;;;5030218;28;20105;-53
2024/03/27 05:50:53;;;;;;;13.32;8.10;;;;;;;;;;5030278;28;20091;-55
2024/03/27 05:53:19;;;;;;;13.18;7.80;;;;;;;;;;5030298;28;20028;-47
2024/03/27 05:55:56;;;;;;;13.15;7.72;;;;;;;;;;5029942;28;20040;-51
2024/03/27 05:58:22;;;;;;;13.23;7.72;;;;;;;;;;5030184;28;20436;-48
2024/03/27 06:00:48;;;;;;;13.20;7.90;;;;;;;;;;5030143;28;20056;-55
2024/03/27 06:03:14;;;;;;;13.23;7.80;;;;;;;;;;5029704;28;20360;-51
2024/03/27 06:05:40;;;;;;;13.02;7.72;;;;;;;;;;5029946;28;20025;-51
2024/03/27 06:08:06;;;;;;;13.32;7.82;;;;;;;;;;5029784;28;20025;-50
2024/03/27 06:10:32;;;;;;;13.40;8.07;;;;;;;;;;5030053;28;20057;-55
2024/03/27 06:12:59;;;;;;;13.40;8.10;;;;;;;;;;5029761;28;20464;-55
2024/03/27 06:15:25;;;;;;;13.40;8.10;;;;;;;;;;5029397;28;20120;-56
2024/03/27 06:17:51;;;;;;;13.48;8.30;;;;;;;;;;5029480;28;20032;-52
2024/03/27 06:20:18;;;;;;;13.55;8.60;;;;;;;;;;5029355;28;20040;-54
2024/03/27 06:22:44;;;;;;;13.57;8.68;;;;;;;;;;5029712;28;20100;-52
2024/03/27 06:25:10;;;;;;;13.63;8.77;;;;;;;;;;5029451;28;20116;-54
2024/03/27 06:27:36;;;;;;;13.55;8.63;;;;;;;;;;5029483;28;20022;-53
2024/03/27 06:30:02;;;;;;;13.70;9.10;;;;;;;;;;5029391;28;20049;-53
2024/03/27 06:32:28;;;;;;;13.55;8.77;;;;;;;;;;5029279;28;20080;-52
2024/03/27 06:34:54;;;;;;;13.57;8.70;;;;;;;;;;5061408;22;20124;-52
2024/03/27 06:37:20;;;;;;;13.68;8.90;;;;;;;;;;5047056;28;20078;-53
2024/03/27 06:39:46;;;;;;;13.75;9.15;;;;;;;;;;5048172;28;20491;-55
2024/03/27 06:42:12;;;;;;;13.80;9.25;;;;;;;;;;5049612;28;20025;-55
2024/03/27 06:44:38;;;;;;;13.90;9.52;;;;;;;;;;5033991;28;20104;-51
2024/03/27 06:47:05;;;;;;;13.90;9.57;;;;;;;;;;5052638;28;20051;-50
2024/03/27 06:49:34;;;;;;;13.93;9.60;;;;;;;;;;5034671;28;20115;-53
2024/03/27 06:52:00;;;;;;;13.98;9.60;;;;;;;;;;5051949;28;20025;-53
2024/03/27 06:54:26;;;;;;;13.95;9.60;;;;;;;;;;5033556;28;20520;-58
2024/03/27 06:56:52;;;;;;;13.95;9.57;;;;;;;;;;5051810;28;20045;-54
2024/03/27 06:59:18;;;;;;;13.95;9.70;;;;;;;;;;5052161;28;20187;-57
2024/03/27 07:01:44;;;;;;;14.05;9.93;;;;;;;;;;5052078;28;20039;-58
2024/03/27 07:04:10;;;;;;;13.98;9.70;;;;;;;;;;5051653;28;20372;-57
2024/03/27 07:06:37;;;;;;;14.00;9.77;;;;;;;;;;5052089;28;20498;-58
2024/03/27 07:09:04;;;;;;;14.05;9.98;;;;;;;;;;5051577;28;20025;-58
2024/03/27 07:11:30;;;;;;;14.20;10.30;;;;;;;;;;5051325;28;20106;-55
2024/03/27 07:13:56;;;;;;;14.20;10.27;;;;;;;;;;5051460;28;20039;-57
2024/03/27 07:16:22;;;;;;;14.00;9.90;;;;;;;;;;5051490;28;20028;-53
2024/03/27 07:18:48;;;;;;;14.07;10.05;;;;;;;;;;5051633;28;20049;-57
2024/03/27 07:21:14;;;;;;;13.93;9.63;;;;;;;;;;5051285;28;20029;-58
2024/03/27 07:23:40;;;;;;;13.95;9.73;;;;;;;;;;5051213;28;20108;-56
2024/03/27 07:26:07;;;;;;;14.00;9.95;;;;;;;;;;5051210;28;20025;-54
2024/03/27 07:28:33;;;;;;;14.05;9.90;;;;;;;;;;5033195;28;20398;-56
2024/03/27 07:30:59;;;;;;;14.18;10.30;;;;;;;;;;5051172;28;20395;-57
2024/03/27 07:33:26;;;;;;;14.20;10.30;;;;;;;;;;5051268;28;20428;-58
2024/03/27 07:35:53;;;;;;;14.15;10.25;;;;;;;;;;5051514;28;20113;-57
2024/03/27 07:38:19;;;;;;;14.13;10.15;;;;;;;;;;5051127;28;20048;-56
2024/03/27 07:40:46;;;;;;;14.02;9.93;;;;;;;;;;5033644;28;20487;-57
2024/03/27 07:43:12;;;;;;;14.02;10.05;;;;;;;;;;5051122;28;20020;-54
2024/03/27 07:45:38;;;;;;;14.07;10.18;;;;;;;;;;5050960;28;20099;-55
2024/03/27 07:48:05;;;;;;;14.10;10.07;;;;;;;;;;5050901;28;20033;-57
2024/03/27 07:50:31;;;;;;;13.98;9.90;;;;;;;;;;5051021;28;20491;-56
2024/03/27 07:52:57;;;;;;;14.07;10.07;;;;;;;;;;5050578;28;20081;-56
2024/03/27 07:55:23;;;;;;;14.00;9.73;;;;;;;;;;5050559;28;20029;-54
2024/03/27 07:57:49;;;;;;;14.10;10.10;;;;;;;;;;5051854;28;20036;-56
2024/03/27 08:00:16;;;;;;;13.95;9.73;;;;;;;;;;5051519;28;20545;-55
2024/03/27 08:02:42;;;;;;;13.93;9.65;;;;;;;;;;5051315;28;20033;-53
2024/03/27 08:05:09;;;;;;;13.98;9.70;;;;;;;;;;5051324;28;20445;-58
2024/03/27 08:07:35;;;;;;;13.95;9.60;;;;;;;;;;5051515;28;20021;-58
2024/03/27 08:10:03;;;;;;;14.30;9.85;;;;;;;;;;5051062;28;20024;-59
2024/03/27 08:12:29;;;;;;;13.88;9.50;;;;;;;;;;5051088;28;20481;-57
2024/03/27 08:14:55;;;;;;;13.95;9.68;;;;;;;;;;5050984;28;20029;-58
2024/03/27 08:17:21;;;;;;;13.95;9.73;;;;;;;;;;5051320;28;20094;-58
2024/03/27 08:19:47;;;;;;;13.95;9.68;;;;;;;;;;5051258;28;20021;-55
2024/03/27 08:22:13;;;;;;;13.80;9.30;;;;;;;;;;5051039;28;20029;-56
2024/03/27 08:24:39;;;;;;;13.88;9.40;;;;;;;;;;5050849;28;20021;-57
2024/03/27 08:27:06;;;;;;;13.82;9.40;;;;;;;;;;5050691;28;20032;-54
2024/03/27 08:29:32;;;;;;;13.82;9.35;;;;;;;;;;5032482;28;20021;-54
2024/03/27 08:31:58;;;;;;;13.90;9.40;;;;;;;;;;5049282;28;20029;-58
2024/03/27 08:34:24;;;;;;;14.00;9.68;;;;;;;;;;5049679;28;20424;-57
2024/03/27 08:36:50;;;;;;;13.75;9.07;;;;;;;;;;5048927;28;20035;-56
2024/03/27 08:39:17;;;;;;;13.80;9.40;;;;;;;;;;5049182;28;20648;-57
2024/03/27 08:41:43;;;;;;;13.80;9.23;;;;;;;;;;5049342;28;20021;-57
2024/03/27 08:44:09;;;;;;;14.93;9.68;;;;;;;;;;5049051;28;20021;-58
2024/03/27 08:46:35;;;;;;;13.82;9.40;;;;;;;;;;5049384;28;20029;-56
2024/03/27 08:49:01;;;;;;;14.00;9.90;;;;;;;;;;5050469;28;20082;-53
2024/03/27 08:51:27;;;;;;;13.95;9.70;;;;;;;;;;5049628;28;20025;-55
2024/03/27 08:53:53;;;;;;;14.50;9.93;;;;;;;;;;5050049;28;20059;-54
2024/03/27 08:56:19;;;;;;;13.90;9.52;;;;;;;;;;5049772;28;20017;-57
2024/03/27 08:58:46;;;;;;;14.00;9.70;;;;;;;;;;5049778;28;20444;-57
2024/03/27 09:01:19;;;;;;;14.20;9.70;;;;;;;;;;5049955;28;20077;-54
2024/03/27 09:03:46;;;;;;;13.90;9.57;;;;;;;;;;5049814;28;20021;-57
2024/03/27 09:06:13;;;;;;;14.00;9.90;;;;;;;;;;5049326;28;20028;-58
2024/03/27 09:08:39;;;;;;;14.32;9.70;;;;;;;;;;5030326;28;20036;-58
2024/03/27 09:11:06;;;;;;;13.90;9.60;;;;;;;;;;5048434;28;20025;-59
2024/03/27 09:13:32;;;;;;;14.02;9.60;;;;;;;;;;5033969;28;20021;-58
2024/03/27 09:15:59;;;;;;;13.85;9.40;;;;;;;;;;5052844;28;20052;-57
2024/03/27 09:18:25;;;;;;;13.90;9.57;;;;;;;;;;5051172;28;20517;-57
2024/03/27 09:20:54;;;;;;;13.93;9.50;;;;;;;;;;5049478;28;20107;-57
2024/03/27 09:23:21;;;;;;;13.90;9.45;;;;;;;;;;5049525;28;20025;-57
2024/03/27 09:26:13;;;;;;;13.90;9.55;;;;;;;;;;5051047;28;20106;-59
2024/03/27 09:28:39;;;;;;;13.93;9.70;;;;;;;;;;5047690;28;20037;-58
2024/03/27 09:31:05;;;;;;;13.85;9.48;;;;;;;;;;5050165;28;20021;-57
2024/03/27 09:33:31;;;;;;;14.05;9.90;;;;;;;;;;5050061;28;20029;-55
2024/03/27 09:35:57;;;;;;;13.95;9.70;;;;;;;;;;5049309;28;20056;-56
2024/03/27 09:38:23;;;;;;;14.20;10.38;;;;;;;;;;5049438;28;20024;-58
2024/03/27 09:40:54;;;;;;;15.18;10.88;;;;;;;;;;5049846;28;20518;-58
2024/03/27 09:43:21;;;;;;;13.80;9.30;;;;;;;;;;5050075;28;20051;-57
2024/03/27 09:45:47;;;;;;;13.75;9.20;;;;;;;;;;5050564;28;20479;-56
2024/03/27 09:48:13;;;;;;;14.32;10.27;;;;;;;;;;5031146;28;20060;-54
2024/03/27 09:50:40;;;;;;;13.80;9.25;;;;;;;;;;5049320;28;20025;-56
2024/03/27 09:53:09;;;;;;;15.10;10.50;;;;;;;;;;5049169;28;20045;-55
2024/03/27 09:55:36;;;;;;;13.98;9.70;;;;;;;;;;5031527;28;20517;-53
2024/03/27 09:58:07;;;;;;;13.90;9.55;;;;;;;;;;5049312;28;20025;-56
2024/03/27 10:00:33;;;;;;;14.00;9.73;;;;;;;;;;5049110;28;20029;-53
2024/03/27 10:03:00;;;;;;;14.52;10.30;;;;;;;;;;5049322;28;20021;-58
2024/03/27 10:05:27;;;;;;;14.10;10.00;;;;;;;;;;5049102;28;20029;-56
2024/03/27 10:07:56;;;;;;;14.00;9.82;;;;;;;;;;5046436;28;20052;-58
2024/03/27 10:10:25;;;;;;;13.98;9.88;;;;;;;;;;5047658;28;20031;-55
2024/03/27 10:12:52;;;;;;;14.70;11.02;;;;;;;;;;5047753;28;20031;-55
2024/03/27 10:15:18;;;;;;;13.90;9.55;;;;;;;;;;5047836;28;20021;-55
2024/03/27 10:17:44;;;;;;;13.93;9.65;;;;;;;;;;5050470;28;20091;-56
2024/03/27 10:20:10;;;;;;;13.98;9.88;;;;;;;;;;5036248;28;20028;-57
2024/03/27 10:22:37;;;;;;;14.05;10.00;;;;;;;;;;5052578;28;20052;-58
2024/03/27 10:25:07;;;;;;;14.07;10.10;;;;;;;;;;5052663;28;20050;-60
2024/03/27 10:27:33;;;;;;;15.38;10.93;;;;;;;;;;5035194;28;20115;-57
2024/03/27 10:29:59;;;;;;;14.00;9.85;;;;;;;;;;5052757;28;20025;-55
2024/03/27 10:32:26;;;;;;;13.98;9.80;;;;;;;;;;5052779;28;20264;-57
2024/03/27 10:34:52;;;;;;;14.75;10.98;;;;;;;;;;5052659;28;20072;-56
2024/03/27 10:37:18;;;;;;;13.90;9.60;;;;;;;;;;5053034;28;20056;-56
2024/03/27 10:39:51;;;;;;;13.93;9.60;;;;;;;;;;5053050;28;20028;-59
2024/03/27 10:42:24;;;;;;;13.90;9.52;;;;;;;;;;5053136;28;20056;-57
2024/03/27 10:44:54;;;;;;;14.00;9.80;;;;;;;;;;5052909;28;20017;-56
2024/03/27 10:47:20;;;;;;;13.90;9.40;;;;;;;;;;5052881;28;20060;-56
2024/03/27 10:49:47;;;;;;;13.75;9.05;;;;;;;;;;5034849;28;20025;-56
2024/03/27 10:52:14;;;;;;;13.77;9.05;;;;;;;;;;5053016;28;20029;-55
2024/03/27 10:54:44;;;;;;;13.95;9.70;;;;;;;;;;5034629;28;20021;-59
2024/03/27 10:57:11;;;;;;;14.98;10.20;;;;;;;;;;5054249;28;20040;-58
2024/03/27 10:59:38;;;;;;;13.90;9.57;;;;;;;;;;5053728;28;20021;-52
2024/03/27 11:02:08;;;;;;;14.05;9.60;;;;;;;;;;5036174;28;20379;-53
2024/03/27 11:04:40;;;;;;;13.65;8.82;;;;;;;;;;5034969;28;20025;-58
2024/03/27 11:07:07;;;;;;;13.60;8.90;;;;;;;;;;5053102;28;20090;-56
2024/03/27 11:09:33;;;;;;;13.67;8.97;;;;;;;;;;5034866;28;20498;-54
2024/03/27 11:11:59;;;;;;;13.80;9.25;;;;;;;;;;5052194;28;20031;-57
2024/03/27 11:14:25;;;;;;;13.73;9.10;;;;;;;;;;5052269;28;20086;-58
2024/03/27 11:16:55;;;;;;;14.32;10.10;;;;;;;;;;5052673;28;20110;-56
2024/03/27 11:19:34;;;;;;;13.77;9.13;;;;;;;;;;5052658;28;20495;-57
2024/03/27 11:21:59;;;;;;;;;;;;;;;;;;5052872;28;20426;-57
2024/03/27 11:24:25;;;;;;;13.70;9.00;;;;;;;;;;5051966;28;20041;-57
2024/03/27 11:26:58;;;;;;;14.20;9.93;;;;;;;;;;5052095;28;20145;-55
2024/03/27 11:29:24;;;;;;;13.90;9.45;;;;;;;;;;5051739;28;20627;-57
2024/03/27 11:31:50;;;;;;;14.00;9.70;;;;;;;;;;5053292;28;20029;-57
2024/03/27 11:34:17;;;;;;;16.38;12.25;;;;;;;;;;5033598;28;20420;-59
2024/03/27 11:36:43;;;;;;;13.95;9.77;;;;;;;;;;5051588;28;20036;-59
2024/03/27 11:39:13;;;;;;;14.00;9.80;;;;;;;;;;5033967;28;20025;-57
2024/03/27 11:41:39;;;;;;;14.00;9.95;;;;;;;;;;5051785;28;20047;-59
2024/03/27 11:44:05;;;;;;;14.10;10.00;;;;;;;;;;5051409;28;20108;-57
2024/03/27 11:46:31;;;;;;;13.90;9.50;;;;;;;;;;5051552;28;20025;-56
2024/03/27 11:48:57;;;;;;;13.95;9.52;;;;;;;;;;5051421;28;20055;-58
2024/03/27 11:51:23;;;;;;;14.10;10.00;;;;;;;;;;5053553;28;20341;-56
2024/03/27 11:53:49;;;;;;;13.82;9.32;;;;;;;;;;5051035;28;20032;-54
2024/03/27 11:56:15;;;;;;;13.80;9.25;;;;;;;;;;5050522;28;20029;-57
2024/03/27 11:58:41;;;;;;;14.20;9.70;;;;;;;;;;5052436;28;20025;-54
2024/03/27 12:01:08;;;;;;;14.02;9.90;;;;;;;;;;5054336;28;20049;-58
2024/03/27 12:03:34;;;;;;;14.93;11.25;;;;;;;;;;5054035;28;20040;-56
2024/03/27 12:06:00;;;;;;;13.90;9.52;;;;;;;;;;5051293;28;20391;-59
2024/03/27 12:08:26;;;;;;;15.90;10.07;;;;;;;;;;5051248;28;20093;-57
2024/03/27 12:10:52;;;;;;;13.77;9.20;;;;;;;;;;5051109;28;20487;-56
2024/03/27 12:13:18;;;;;;;13.80;9.30;;;;;;;;;;5050798;28;20047;-56
2024/03/27 12:15:44;;;;;;;14.10;9.20;;;;;;;;;;5051117;28;20025;-56
2024/03/27 12:18:13;;;;;;;13.73;9.10;;;;;;;;;;5051008;28;20033;-59
2024/03/27 12:20:39;;;;;;;13.93;8.98;;;;;;;;;;5050865;28;20035;-57
2024/03/27 12:23:06;;;;;;;15.02;10.65;;;;;;;;;;5046737;28;20096;-53
2024/03/27 12:25:32;;;;;;;13.57;8.65;;;;;;;;;;5050529;28;20017;-57
2024/03/27 12:28:04;;;;;;;15.95;12.27;;;;;;;;;;5051050;28;20025;-55
2024/03/27 12:30:30;;;;;;;13.77;9.15;;;;;;;;;;5050774;28;20021;-57
2024/03/27 12:32:56;;;;;;;14.10;9.93;;;;;;;;;;5048731;28;20029;-55
2024/03/27 12:35:22;;;;;;;14.18;9.82;;;;;;;;;;5084298;22;20490;-53
2024/03/27 12:37:48;;;;;;;14.00;9.80;;;;;;;;;;5090468;28;20038;-49
2024/03/27 12:40:14;;;;;;;13.90;9.30;;;;;;;;;;5090463;28;20103;-53
2024/03/27 12:42:41;;;;;;;13.75;9.10;;;;;;;;;;5091439;28;20024;-52
2024/03/27 12:45:07;;;;;;;14.00;9.73;;;;;;;;;;5072602;28;20112;-56
2024/03/27 12:47:33;;;;;;;13.90;9.48;;;;;;;;;;5091258;28;20028;-53
2024/03/27 12:49:59;;;;;;;13.90;9.50;;;;;;;;;;5091413;28;20165;-55
2024/03/27 12:52:25;;;;;;;13.88;9.32;;;;;;;;;;5090882;28;20439;-48
2024/03/27 12:54:51;;;;;;;13.90;9.50;;;;;;;;;;5090880;28;20034;-52
2024/03/27 12:57:17;;;;;;;13.93;9.25;;;;;;;;;;5090712;28;20128;-53
2024/03/27 12:59:43;;;;;;;13.82;9.35;;;;;;;;;;5091146;28;20059;-51
2024/03/27 13:02:11;;;;;;;14.80;10.35;;;;;;;;;;5072368;28;20047;-49
2024/03/27 13:04:37;;;;;;;15.18;9.60;;;;;;;;;;5090914;28;20020;-52
2024/03/27 13:07:03;;;;;;;13.65;8.90;;;;;;;;;;5090910;28;20026;-49
2024/03/27 13:09:29;;;;;;;15.00;9.70;;;;;;;;;;5090357;28;20028;-51
2024/03/27 13:11:55;;;;;;;14.70;10.32;;;;;;;;;;5090781;28;20032;-49
2024/03/27 13:14:22;;;;;;;15.05;10.38;;;;;;;;;;5090538;28;20114;-50
2024/03/27 13:16:54;;;;;;;14.02;9.20;;;;;;;;;;5072186;28;20024;-50
2024/03/27 13:19:20;;;;;;;13.80;9.10;;;;;;;;;;5090447;28;20016;-56
2024/03/27 13:21:46;;;;;;;13.68;8.98;;;;;;;;;;5091122;28;20027;-51
2024/03/27 13:24:12;;;;;;;13.90;9.40;;;;;;;;;;5090194;28;20021;-52
2024/03/27 13:26:38;;;;;;;13.68;8.93;;;;;;;;;;5090163;28;20073;-52
2024/03/27 13:29:04;;;;;;;13.90;9.35;;;;;;;;;;5072168;28;20422;-52
2024/03/27 13:31:30;;;;;;;14.10;9.35;;;;;;;;;;5090405;28;20031;-48
2024/03/27 13:33:56;;;;;;;13.70;8.65;;;;;;;;;;5089975;28;20469;-55
2024/03/27 13:36:22;;;;;;;13.55;8.60;;;;;;;;;;5089880;28;20107;-55
2024/03/27 13:38:48;;;;;;;14.00;9.20;;;;;;;;;;5089674;28;20032;-52
2024/03/27 13:41:14;;;;;;;13.93;9.45;;;;;;;;;;5090219;28;20027;-56
2024/03/27 13:43:40;;;;;;;13.75;9.13;;;;;;;;;;5090000;28;20024;-49
2024/03/27 13:46:06;;;;;;;16.45;10.35;;;;;;;;;;5089997;28;20024;-48
2024/03/27 13:48:32;;;;;;;13.95;9.57;;;;;;;;;;5090150;28;20016;-52
2024/03/27 13:50:58;;;;;;;15.45;10.95;;;;;;;;;;5089779;28;20020;-52
2024/03/27 13:53:24;;;;;;;13.80;9.13;;;;;;;;;;5089837;28;20389;-56
2024/03/27 13:55:50;;;;;;;14.25;9.32;;;;;;;;;;5089982;28;20077;-48
2024/03/27 13:58:16;;;;;;;13.43;8.10;;;;;;;;;;5089926;28;20036;-50
2024/03/27 14:00:42;;;;;;;16.38;10.02;;;;;;;;;;5089875;28;20099;-51
2024/03/27 14:03:08;;;;;;;13.80;8.95;;;;;;;;;;5089766;28;20100;-53
2024/03/27 14:05:34;;;;;;;13.55;8.52;;;;;;;;;;5089715;28;20036;-51
2024/03/27 14:08:04;;;;;;;14.50;10.30;;;;;;;;;;5089889;28;20024;-53
2024/03/27 14:10:30;;;;;;;14.10;9.55;;;;;;;;;;5090203;28;20084;-50
2024/03/27 14:12:56;;;;;;;13.73;9.10;;;;;;;;;;5089627;28;20028;-52
2024/03/27 14:15:22;;;;;;;13.57;8.60;;;;;;;;;;5071638;28;20134;-51
2024/03/27 14:17:48;;;;;;;13.80;8.80;;;;;;;;;;5090045;28;20520;-53
2024/03/27 14:20:14;;;;;;;13.40;8.20;;;;;;;;;;5090093;28;20026;-57
2024/03/27 14:22:40;;;;;;;13.65;8.75;;;;;;;;;;5089566;28;20031;-53
2024/03/27 14:25:06;;;;;;;13.48;8.20;;;;;;;;;;5089814;28;20024;-51